メインページ
METAR-TAF:

METAR-TAF

空港 :

ムワンザ, タンザニア

緯度: 02-28S, 経度: 032-55E, 海抜: 1139m

現時点の気象観測

当レポートは40分前の15:00(UTC)に作成
西/南西の風 10kt
気温 28°C
湿度 45%
気圧 1013 hPa
視程10km以上
高度2600ftの雲はほとんどない
高度2700ftの雲はほとんどない, 積乱雲.

METAR: HTMW 201500Z 24010KT 9999 FEW026 FEW027CB 28/15 Q1013 NOSIG

時間: 18:40 (15:40 UTC)

予報

当レポートは10時間40分前の05:00(UTC)に作成
予報は20日の 06時(UTC)から 21日の 06時(UTC)まで有効
東/南東の風 10kt
視程10km以上
高度2300ftの雲はほとんどない
高度2400ftの雲はほとんどない, 積乱雲.
20日の 10時(UTC)から 20日の 12時(UTC)まで徐々に
北/北西の風 10kt
高度2700ftの雲は散在している
高度2800ftの雲はほとんどない, 積乱雲.
20日の 16時(UTC)から 20日の 18時(UTC)まで徐々に
の風 kt

TAF: HTMW 200500Z 2006/2106 12010KT 9999 FEW023 FEW024CB BECMG 2010/2012 33010KT SCT027 FEW028CB BECMG 2016/2018 00000KT

4,000以上の空港の気象観測と天気予報(METAR報とTAF報)

利用可能な観測所は地図上に黄色い丸と赤い丸で示す。

丸の上にカーソルを重ねると観測所名を参照できる。

次にクリックすると気象観測と天気予報を参照できる。

マップの切り替え:黒色「×」印の緑ボタンをクリックして拡大、「-」印の緑ボタンをクリックして縮小、緑色の三角印をクリックして隣りの地図に切り替え


METAR-TAF: